Tonawanda, New York
Current Conditions -  °F | °C
As of 6:59 AM on Saturday 20 Dec 2014 (Local Time) from KIAG Reporting Station
Overcast Overcast  
Wind Chill: 26°   Ceiling: 2000
Heat Index: 26°   Visibility: 8mi
Dew Point: 23°   Wind: 3mph
Humidity: 88%   Direction: 240°WSW
Pressure: 30.29"   Gusts: NA
Location:  43.02°N, 78.89°W
Report Text: KIAG 201159Z 24003KT 8SM OVC020 M03/M05 A3029 RMK AO2 T10331050
Loading
Personal Weather Stations






























Interactive Weather Map New forecast layout! Learn more

10-Day Weather Forecast

Advertisements
Track Severe Weather on mobile